sensor_id;sensor_type;location;lat;lon;timestamp;pressure;altitude;pressure_sealevel;temperature
78859;BMP280;68210;52.032;4.634;2024-01-25T00:00:35;102605.06;;;9.53
78859;BMP280;68210;52.032;4.634;2024-01-25T00:02:35;102587.03;;;9.49
78859;BMP280;68210;52.032;4.634;2024-01-25T00:04:36;102592.63;;;9.39
78859;BMP280;68210;52.032;4.634;2024-01-25T00:06:37;102592.81;;;9.29
78859;BMP280;68210;52.032;4.634;2024-01-25T00:08:38;102598.91;;;9.21
78859;BMP280;68210;52.032;4.634;2024-01-25T00:10:38;102593.31;;;9.31
78859;BMP280;68210;52.032;4.634;2024-01-25T00:12:38;102589.59;;;9.27
78859;BMP280;68210;52.032;4.634;2024-01-25T00:14:39;102598.41;;;9.19
78859;BMP280;68210;52.032;4.634;2024-01-25T00:16:42;102595.59;;;9.24
78859;BMP280;68210;52.032;4.634;2024-01-25T00:18:43;102593.31;;;9.31
78859;BMP280;68210;52.032;4.634;2024-01-25T00:20:43;102583.09;;;9.28
78859;BMP280;68210;52.032;4.634;2024-01-25T00:22:43;102588.31;;;9.25
78859;BMP280;68210;52.032;4.634;2024-01-25T00:24:44;102587.00;;;9.22
78859;BMP280;68210;52.032;4.634;2024-01-25T00:26:44;102596.78;;;9.18
78859;BMP280;68210;52.032;4.634;2024-01-25T00:28:44;102601.41;;;9.18
78859;BMP280;68210;52.032;4.634;2024-01-25T00:30:45;102599.00;;;9.16
78859;BMP280;68210;52.032;4.634;2024-01-25T00:32:45;102592.56;;;9.12
78859;BMP280;68210;52.032;4.634;2024-01-25T00:34:46;102584.75;;;9.24
78859;BMP280;68210;52.032;4.634;2024-01-25T00:36:46;102592.81;;;9.29
78859;BMP280;68210;52.032;4.634;2024-01-25T00:38:47;102591.19;;;9.15
78859;BMP280;68210;52.032;4.634;2024-01-25T00:40:48;102587.47;;;9.11
78859;BMP280;68210;52.032;4.634;2024-01-25T00:42:48;102595.38;;;9.21
78859;BMP280;68210;52.032;4.634;2024-01-25T00:44:53;102594.19;;;9.27
78859;BMP280;68210;52.032;4.634;2024-01-25T00:46:53;102590.38;;;9.14
78859;BMP280;68210;52.032;4.634;2024-01-25T00:48:54;102587.75;;;9.09
78859;BMP280;68210;52.032;4.634;2024-01-25T00:50:54;102585.72;;;9.02
78859;BMP280;68210;52.032;4.634;2024-01-25T00:52:55;102585.22;;;9.00
78859;BMP280;68210;52.032;4.634;2024-01-25T00:54:57;102585.81;;;8.97
78859;BMP280;68210;52.032;4.634;2024-01-25T00:56:58;102602.41;;;9.09
78859;BMP280;68210;52.032;4.634;2024-01-25T00:58:58;102600.81;;;9.21
78859;BMP280;68210;52.032;4.634;2024-01-25T01:00:59;102603.63;;;9.29
78859;BMP280;68210;52.032;4.634;2024-01-25T01:03:02;102607.56;;;9.05
78859;BMP280;68210;52.032;4.634;2024-01-25T01:05:03;102608.00;;;9.12
78859;BMP280;68210;52.032;4.634;2024-01-25T01:07:04;102613.03;;;9.18
78859;BMP280;68210;52.032;4.634;2024-01-25T01:09:05;102626.28;;;9.20
78859;BMP280;68210;52.032;4.634;2024-01-25T01:11:05;102619.47;;;9.22
78859;BMP280;68210;52.032;4.634;2024-01-25T01:13:05;102620.38;;;9.00
78859;BMP280;68210;52.032;4.634;2024-01-25T01:15:07;102632.66;;;9.10
78859;BMP280;68210;52.032;4.634;2024-01-25T01:17:08;102636.25;;;9.06
78859;BMP280;68210;52.032;4.634;2024-01-25T01:19:08;102639.06;;;8.83
78859;BMP280;68210;52.032;4.634;2024-01-25T01:21:09;102642.47;;;9.07
78859;BMP280;68210;52.032;4.634;2024-01-25T01:23:09;102641.34;;;9.08
78859;BMP280;68210;52.032;4.634;2024-01-25T01:25:10;102641.66;;;9.06
78859;BMP280;68210;52.032;4.634;2024-01-25T01:27:10;102642.75;;;9.05
78859;BMP280;68210;52.032;4.634;2024-01-25T01:29:11;102652.13;;;8.94
78859;BMP280;68210;52.032;4.634;2024-01-25T01:31:11;102644.41;;;8.88
78859;BMP280;68210;52.032;4.634;2024-01-25T01:33:11;102655.13;;;8.93
78859;BMP280;68210;52.032;4.634;2024-01-25T01:35:12;102657.41;;;8.86
78859;BMP280;68210;52.032;4.634;2024-01-25T01:37:12;102670.06;;;8.90
78859;BMP280;68210;52.032;4.634;2024-01-25T01:39:13;102678.69;;;8.92
78859;BMP280;68210;52.032;4.634;2024-01-25T01:41:13;102664.66;;;8.90
78859;BMP280;68210;52.032;4.634;2024-01-25T01:43:20;102668.44;;;8.89
78859;BMP280;68210;52.032;4.634;2024-01-25T01:45:20;102674.09;;;8.93
78859;BMP280;68210;52.032;4.634;2024-01-25T01:47:21;102668.34;;;8.76
78859;BMP280;68210;52.032;4.634;2024-01-25T01:49:21;102666.97;;;8.78
78859;BMP280;68210;52.032;4.634;2024-01-25T01:51:22;102673.63;;;8.86
78859;BMP280;68210;52.032;4.634;2024-01-25T01:53:23;102681.16;;;8.89
78859;BMP280;68210;52.032;4.634;2024-01-25T01:55:23;102667.44;;;8.85
78859;BMP280;68210;52.032;4.634;2024-01-25T01:57:24;102667.88;;;8.74
78859;BMP280;68210;52.032;4.634;2024-01-25T01:59:25;102672.56;;;8.69
78859;BMP280;68210;52.032;4.634;2024-01-25T02:01:26;102677.16;;;8.68
78859;BMP280;68210;52.032;4.634;2024-01-25T02:03:27;102674.16;;;8.70
78859;BMP280;68210;52.032;4.634;2024-01-25T02:05:27;102665.31;;;8.64
78859;BMP280;68210;52.032;4.634;2024-01-25T02:07:28;102657.31;;;8.54
78859;BMP280;68210;52.032;4.634;2024-01-25T02:09:29;102656.31;;;8.50
78859;BMP280;68210;52.032;4.634;2024-01-25T02:11:29;102660.69;;;8.47
78859;BMP280;68210;52.032;4.634;2024-01-25T02:13:30;102665.69;;;8.17
78859;BMP280;68210;52.032;4.634;2024-01-25T02:15:31;102658.56;;;8.44
78859;BMP280;68210;52.032;4.634;2024-01-25T02:17:32;102661.78;;;8.46
78859;BMP280;68210;52.032;4.634;2024-01-25T02:19:32;102661.78;;;8.46
78859;BMP280;68210;52.032;4.634;2024-01-25T02:21:33;102666.53;;;8.53
78859;BMP280;68210;52.032;4.634;2024-01-25T02:23:33;102674.72;;;8.48
78859;BMP280;68210;52.032;4.634;2024-01-25T02:25:33;102674.38;;;8.55
78859;BMP280;68210;52.032;4.634;2024-01-25T02:27:34;102677.00;;;8.42
78859;BMP280;68210;52.032;4.634;2024-01-25T02:29:38;102674.94;;;8.34
78859;BMP280;68210;52.032;4.634;2024-01-25T02:31:39;102673.03;;;8.34
78859;BMP280;68210;52.032;4.634;2024-01-25T02:33:39;102669.81;;;8.32
78859;BMP280;68210;52.032;4.634;2024-01-25T02:35:39;102670.91;;;8.31
78859;BMP280;68210;52.032;4.634;2024-01-25T02:37:40;102679.88;;;8.27
78859;BMP280;68210;52.032;4.634;2024-01-25T02:39:40;102678.28;;;8.26
78859;BMP280;68210;52.032;4.634;2024-01-25T02:41:40;102675.84;;;8.24
78859;BMP280;68210;52.032;4.634;2024-01-25T02:43:41;102681.31;;;8.19
78859;BMP280;68210;52.032;4.634;2024-01-25T02:45:41;102677.28;;;8.17
78859;BMP280;68210;52.032;4.634;2024-01-25T02:47:42;102680.56;;;8.14
78859;BMP280;68210;52.032;4.634;2024-01-25T02:49:42;102690.38;;;8.05
78859;BMP280;68210;52.032;4.634;2024-01-25T02:51:42;102692.88;;;8.02
78859;BMP280;68210;52.032;4.634;2024-01-25T02:53:44;102702.34;;;7.99
78859;BMP280;68210;52.032;4.634;2024-01-25T02:55:45;102703.19;;;7.95
78859;BMP280;68210;52.032;4.634;2024-01-25T02:57:45;102702.97;;;7.91
78859;BMP280;68210;52.032;4.634;2024-01-25T02:59:46;102705.47;;;8.11
78859;BMP280;68210;52.032;4.634;2024-01-25T03:01:47;102709.06;;;8.02
78859;BMP280;68210;52.032;4.634;2024-01-25T03:03:47;102712.03;;;8.00
78859;BMP280;68210;52.032;4.634;2024-01-25T03:05:48;102707.94;;;8.08
78859;BMP280;68210;52.032;4.634;2024-01-25T03:07:48;102702.78;;;8.06
78859;BMP280;68210;52.032;4.634;2024-01-25T03:09:48;102697.03;;;7.89
78859;BMP280;68210;52.032;4.634;2024-01-25T03:11:49;102700.88;;;7.84
78859;BMP280;68210;52.032;4.634;2024-01-25T03:13:49;102702.09;;;7.73
78859;BMP280;68210;52.032;4.634;2024-01-25T03:15:50;102703.06;;;7.82
78859;BMP280;68210;52.032;4.634;2024-01-25T03:17:50;102703.88;;;7.82
78859;BMP280;68210;52.032;4.634;2024-01-25T03:19:51;102700.97;;;7.74
78859;BMP280;68210;52.032;4.634;2024-01-25T03:21:51;102696.16;;;7.71
78859;BMP280;68210;52.032;4.634;2024-01-25T03:23:52;102687.88;;;7.62
78859;BMP280;68210;52.032;4.634;2024-01-25T03:25:52;102694.88;;;7.63
78859;BMP280;68210;52.032;4.634;2024-01-25T03:27:53;102696.28;;;7.61
78859;BMP280;68210;52.032;4.634;2024-01-25T03:29:53;102702.47;;;7.61
78859;BMP280;68210;52.032;4.634;2024-01-25T03:31:53;102692.56;;;7.52
78859;BMP280;68210;52.032;4.634;2024-01-25T03:33:54;102683.19;;;7.45
78859;BMP280;68210;52.032;4.634;2024-01-25T03:35:54;102693.22;;;7.39
78859;BMP280;68210;52.032;4.634;2024-01-25T03:37:55;102695.88;;;7.44
78859;BMP280;68210;52.032;4.634;2024-01-25T03:39:55;102691.56;;;7.43
78859;BMP280;68210;52.032;4.634;2024-01-25T03:41:55;102691.56;;;7.43
78859;BMP280;68210;52.032;4.634;2024-01-25T03:43:56;102696.94;;;7.48
78859;BMP280;68210;52.032;4.634;2024-01-25T03:45:56;102696.63;;;7.50
78859;BMP280;68210;52.032;4.634;2024-01-25T03:47:56;102690.00;;;7.37
78859;BMP280;68210;52.032;4.634;2024-01-25T03:49:57;102690.63;;;7.29
78859;BMP280;68210;52.032;4.634;2024-01-25T03:51:57;102690.88;;;7.28
78859;BMP280;68210;52.032;4.634;2024-01-25T03:53:58;102686.03;;;7.30
78859;BMP280;68210;52.032;4.634;2024-01-25T03:55:58;102674.47;;;7.25
78859;BMP280;68210;52.032;4.634;2024-01-25T03:57:59;102683.09;;;7.27
78859;BMP280;68210;52.032;4.634;2024-01-25T03:59:59;102687.44;;;7.23
78859;BMP280;68210;52.032;4.634;2024-01-25T04:02:00;102689.38;;;7.17
78859;BMP280;68210;52.032;4.634;2024-01-25T04:04:00;102696.13;;;7.15
78859;BMP280;68210;52.032;4.634;2024-01-25T04:06:00;102699.34;;;7.17
78859;BMP280;68210;52.032;4.634;2024-01-25T04:08:01;102709.34;;;7.16
78859;BMP280;68210;52.032;4.634;2024-01-25T04:10:02;102714.53;;;7.08
78859;BMP280;68210;52.032;4.634;2024-01-25T04:12:03;102711.97;;;6.88
78859;BMP280;68210;52.032;4.634;2024-01-25T04:14:04;102706.00;;;6.91
78859;BMP280;68210;52.032;4.634;2024-01-25T04:16:05;102690.38;;;6.88
78859;BMP280;68210;52.032;4.634;2024-01-25T04:18:05;102695.53;;;6.85
78859;BMP280;68210;52.032;4.634;2024-01-25T04:20:06;102693.38;;;6.87
78859;BMP280;68210;52.032;4.634;2024-01-25T04:22:07;102699.03;;;6.85
78859;BMP280;68210;52.032;4.634;2024-01-25T04:24:07;102703.38;;;6.81
78859;BMP280;68210;52.032;4.634;2024-01-25T04:26:08;102704.50;;;6.75
78859;BMP280;68210;52.032;4.634;2024-01-25T04:28:08;102703.50;;;6.62
78859;BMP280;68210;52.032;4.634;2024-01-25T04:30:08;102707.59;;;6.54
78859;BMP280;68210;52.032;4.634;2024-01-25T04:32:10;102694.69;;;6.51
78859;BMP280;68210;52.032;4.634;2024-01-25T04:34:12;102682.28;;;6.45
78859;BMP280;68210;52.032;4.634;2024-01-25T04:36:12;102689.00;;;6.48
78859;BMP280;68210;52.032;4.634;2024-01-25T04:38:13;102701.97;;;6.46
78859;BMP280;68210;52.032;4.634;2024-01-25T04:40:13;102693.59;;;6.47
78859;BMP280;68210;52.032;4.634;2024-01-25T04:42:13;102696.03;;;6.49
78859;BMP280;68210;52.032;4.634;2024-01-25T04:44:14;102690.06;;;6.57
78859;BMP280;68210;52.032;4.634;2024-01-25T04:46:14;102687.63;;;6.60
78859;BMP280;68210;52.032;4.634;2024-01-25T04:48:15;102688.94;;;6.67
78859;BMP280;68210;52.032;4.634;2024-01-25T04:50:16;102681.91;;;6.66
78859;BMP280;68210;52.032;4.634;2024-01-25T04:52:16;102683.53;;;6.67
78859;BMP280;68210;52.032;4.634;2024-01-25T04:54:16;102690.53;;;6.68
78859;BMP280;68210;52.032;4.634;2024-01-25T04:56:17;102690.53;;;6.68
78859;BMP280;68210;52.032;4.634;2024-01-25T04:58:17;102688.66;;;6.64
78859;BMP280;68210;52.032;4.634;2024-01-25T05:00:18;102693.28;;;6.54
78859;BMP280;68210;52.032;4.634;2024-01-25T05:02:18;102693.38;;;6.44
78859;BMP280;68210;52.032;4.634;2024-01-25T05:04:19;102693.91;;;6.41
78859;BMP280;68210;52.032;4.634;2024-01-25T05:06:19;102695.19;;;6.48
78859;BMP280;68210;52.032;4.634;2024-01-25T05:08:20;102699.31;;;6.41
78859;BMP280;68210;52.032;4.634;2024-01-25T05:10:20;102708.41;;;6.50
78859;BMP280;68210;52.032;4.634;2024-01-25T05:12:22;102725.69;;;6.49
78859;BMP280;68210;52.032;4.634;2024-01-25T05:14:22;102730.50;;;6.57
78859;BMP280;68210;52.032;4.634;2024-01-25T05:16:22;102732.66;;;6.55
78859;BMP280;68210;52.032;4.634;2024-01-25T05:18:23;102729.66;;;6.56
78859;BMP280;68210;52.032;4.634;2024-01-25T05:20:23;102738.53;;;6.62
78859;BMP280;68210;52.032;4.634;2024-01-25T05:22:28;102733.22;;;6.47
78859;BMP280;68210;52.032;4.634;2024-01-25T05:24:28;102743.44;;;6.55
78859;BMP280;68210;52.032;4.634;2024-01-25T05:26:29;102743.00;;;6.33
78859;BMP280;68210;52.032;4.634;2024-01-25T05:28:29;102734.59;;;6.39
78859;BMP280;68210;52.032;4.634;2024-01-25T05:30:29;102744.53;;;6.49
78859;BMP280;68210;52.032;4.634;2024-01-25T05:32:30;102752.56;;;6.59
78859;BMP280;68210;52.032;4.634;2024-01-25T05:34:30;102752.53;;;6.64
78859;BMP280;68210;52.032;4.634;2024-01-25T05:36:31;102746.88;;;6.70
78859;BMP280;68210;52.032;4.634;2024-01-25T05:38:31;102737.72;;;6.66
78859;BMP280;68210;52.032;4.634;2024-01-25T05:40:32;102736.38;;;6.64
78859;BMP280;68210;52.032;4.634;2024-01-25T05:42:32;102730.97;;;6.64
78859;BMP280;68210;52.032;4.634;2024-01-25T05:44:33;102738.00;;;6.65
78859;BMP280;68210;52.032;4.634;2024-01-25T05:46:39;102735.31;;;6.65
78859;BMP280;68210;52.032;4.634;2024-01-25T05:48:39;102740.19;;;6.58
78859;BMP280;68210;52.032;4.634;2024-01-25T05:50:39;102730.53;;;6.47
78859;BMP280;68210;52.032;4.634;2024-01-25T05:52:40;102730.00;;;6.45
78859;BMP280;68210;52.032;4.634;2024-01-25T05:54:40;102713.28;;;6.43
78859;BMP280;68210;52.032;4.634;2024-01-25T05:56:41;102709.00;;;6.37
78859;BMP280;68210;52.032;4.634;2024-01-25T05:58:41;102713.84;;;6.40
78859;BMP280;68210;52.032;4.634;2024-01-25T06:00:42;102718.72;;;6.38
78859;BMP280;68210;52.032;4.634;2024-01-25T06:02:43;102722.47;;;6.37
78859;BMP280;68210;52.032;4.634;2024-01-25T06:04:43;102725.72;;;6.39
78859;BMP280;68210;52.032;4.634;2024-01-25T06:06:44;102732.22;;;6.33
78859;BMP280;68210;52.032;4.634;2024-01-25T06:08:44;102740.81;;;6.35
78859;BMP280;68210;52.032;4.634;2024-01-25T06:10:44;102725.47;;;6.31
78859;BMP280;68210;52.032;4.634;2024-01-25T06:12:45;102741.66;;;6.31
78859;BMP280;68210;52.032;4.634;2024-01-25T06:14:45;102740.56;;;6.27
78859;BMP280;68210;52.032;4.634;2024-01-25T06:16:46;102743.00;;;6.28
78859;BMP280;68210;52.032;4.634;2024-01-25T06:18:46;102740.84;;;6.30
78859;BMP280;68210;52.032;4.634;2024-01-25T06:20:46;102738.66;;;6.32
78859;BMP280;68210;52.032;4.634;2024-01-25T06:22:47;102747.03;;;6.26
78859;BMP280;68210;52.032;4.634;2024-01-25T06:24:47;102743.03;;;6.18
78859;BMP280;68210;52.032;4.634;2024-01-25T06:26:47;102754.59;;;6.19
78859;BMP280;68210;52.032;4.634;2024-01-25T06:28:48;102754.66;;;6.09
78859;BMP280;68210;52.032;4.634;2024-01-25T06:30:49;102751.72;;;6.01
78859;BMP280;68210;52.032;4.634;2024-01-25T06:32:50;102743.63;;;5.96
78859;BMP280;68210;52.032;4.634;2024-01-25T06:34:51;102735.00;;;5.94
78859;BMP280;68210;52.032;4.634;2024-01-25T06:36:51;102740.16;;;5.90
78859;BMP280;68210;52.032;4.634;2024-01-25T06:38:51;102738.25;;;5.91
78859;BMP280;68210;52.032;4.634;2024-01-25T06:40:52;102738.78;;;5.93
78859;BMP280;68210;52.032;4.634;2024-01-25T06:42:52;102736.09;;;5.98
78859;BMP280;68210;52.032;4.634;2024-01-25T06:44:52;102741.75;;;5.96
78859;BMP280;68210;52.032;4.634;2024-01-25T06:46:53;102737.69;;;5.99
78859;BMP280;68210;52.032;4.634;2024-01-25T06:48:53;102742.53;;;5.97
78859;BMP280;68210;52.032;4.634;2024-01-25T06:50:54;102733.97;;;5.90
78859;BMP280;68210;52.032;4.634;2024-01-25T06:52:54;102739.34;;;5.90
78859;BMP280;68210;52.032;4.634;2024-01-25T06:54:55;102728.84;;;5.88
78859;BMP280;68210;52.032;4.634;2024-01-25T06:56:55;102721.59;;;5.79
78859;BMP280;68210;52.032;4.634;2024-01-25T06:58:57;102722.41;;;5.79
78859;BMP280;68210;52.032;4.634;2024-01-25T07:00:58;102727.50;;;5.76
78859;BMP280;68210;52.032;4.634;2024-01-25T07:02:59;102738.25;;;5.81
78859;BMP280;68210;52.032;4.634;2024-01-25T07:04:59;102740.94;;;5.86
78859;BMP280;68210;52.032;4.634;2024-01-25T07:07:01;102735.31;;;5.87
78859;BMP280;68210;52.032;4.634;2024-01-25T07:09:02;102745.78;;;5.94
78859;BMP280;68210;52.032;4.634;2024-01-25T07:11:03;102747.13;;;6.01
78859;BMP280;68210;52.032;4.634;2024-01-25T07:13:04;102747.09;;;6.11
78859;BMP280;68210;52.032;4.634;2024-01-25T07:15:04;102731.16;;;6.24
78859;BMP280;68210;52.032;4.634;2024-01-25T07:17:05;102733.81;;;6.29
78859;BMP280;68210;52.032;4.634;2024-01-25T07:19:05;102739.75;;;6.26
78859;BMP280;68210;52.032;4.634;2024-01-25T07:21:05;102748.97;;;6.15
78859;BMP280;68210;52.032;4.634;2024-01-25T07:23:08;102753.31;;;6.06
78859;BMP280;68210;52.032;4.634;2024-01-25T07:25:09;102761.66;;;6.00
78859;BMP280;68210;52.032;4.634;2024-01-25T07:27:09;102760.81;;;6.19
78859;BMP280;68210;52.032;4.634;2024-01-25T07:29:12;102755.66;;;6.28
78859;BMP280;68210;52.032;4.634;2024-01-25T07:31:13;102762.66;;;6.24
78859;BMP280;68210;52.032;4.634;2024-01-25T07:33:13;102763.50;;;6.19
78859;BMP280;68210;52.032;4.634;2024-01-25T07:35:13;102761.09;;;6.13
78859;BMP280;68210;52.032;4.634;2024-01-25T07:37:14;102765.13;;;6.15
78859;BMP280;68210;52.032;4.634;2024-01-25T07:39:15;102761.09;;;6.13
78859;BMP280;68210;52.032;4.634;2024-01-25T07:41:15;102752.75;;;6.14
78859;BMP280;68210;52.032;4.634;2024-01-25T07:43:16;102738.72;;;6.27
78859;BMP280;68210;52.032;4.634;2024-01-25T07:45:16;102746.78;;;6.27
78859;BMP280;68210;52.032;4.634;2024-01-25T07:47:16;102752.69;;;6.29
78859;BMP280;68210;52.032;4.634;2024-01-25T07:49:17;102748.13;;;6.25
78859;BMP280;68210;52.032;4.634;2024-01-25T07:51:17;102754.31;;;6.30
78859;BMP280;68210;52.032;4.634;2024-01-25T07:53:18;102758.06;;;6.34
78859;BMP280;68210;52.032;4.634;2024-01-25T07:55:18;102769.13;;;6.28
78859;BMP280;68210;52.032;4.634;2024-01-25T07:57:19;102758.31;;;6.37
78859;BMP280;68210;52.032;4.634;2024-01-25T07:59:19;102757.81;;;6.31
78859;BMP280;68210;52.032;4.634;2024-01-25T08:01:20;102750.25;;;6.33
78859;BMP280;68210;52.032;4.634;2024-01-25T08:03:21;102744.56;;;6.39
78859;BMP280;68210;52.032;4.634;2024-01-25T08:05:21;102727.28;;;6.45
78859;BMP280;68210;52.032;4.634;2024-01-25T08:07:23;102727.09;;;6.32
78859;BMP280;68210;52.032;4.634;2024-01-25T08:09:23;102743.00;;;6.28
78859;BMP280;68210;52.032;4.634;2024-01-25T08:11:24;102739.81;;;6.16
78859;BMP280;68210;52.032;4.634;2024-01-25T08:13:25;102741.97;;;6.09
78859;BMP280;68210;52.032;4.634;2024-01-25T08:15:28;102737.63;;;6.23
78859;BMP280;68210;52.032;4.634;2024-01-25T08:17:29;102725.97;;;6.42
78859;BMP280;68210;52.032;4.634;2024-01-25T08:19:29;102727.78;;;6.57
78859;BMP280;68210;52.032;4.634;2024-01-25T08:21:31;102728.84;;;6.61
78859;BMP280;68210;52.032;4.634;2024-01-25T08:23:32;102745.34;;;6.44
78859;BMP280;68210;52.032;4.634;2024-01-25T08:25:33;102745.09;;;6.41
78859;BMP280;68210;52.032;4.634;2024-01-25T08:27:33;102753.69;;;6.43
78859;BMP280;68210;52.032;4.634;2024-01-25T08:29:34;102753.97;;;6.46
78859;BMP280;68210;52.032;4.634;2024-01-25T08:31:37;102756.88;;;6.60
78859;BMP280;68210;52.032;4.634;2024-01-25T08:33:39;102763.06;;;6.65
78859;BMP280;68210;52.032;4.634;2024-01-25T08:35:41;102755.78;;;6.66
78859;BMP280;68210;52.032;4.634;2024-01-25T08:37:42;102751.94;;;6.76
78859;BMP280;68210;52.032;4.634;2024-01-25T08:39:43;102750.63;;;7.12
78859;BMP280;68210;52.032;4.634;2024-01-25T08:41:45;102752.28;;;7.13
78859;BMP280;68210;52.032;4.634;2024-01-25T08:43:47;102755.63;;;6.95
78859;BMP280;68210;52.032;4.634;2024-01-25T08:45:47;102758.88;;;6.87
78859;BMP280;68210;52.032;4.634;2024-01-25T08:47:47;102756.34;;;7.05
78859;BMP280;68210;52.032;4.634;2024-01-25T08:49:49;102763.78;;;7.23
78859;BMP280;68210;52.032;4.634;2024-01-25T08:51:49;102761.94;;;7.19
78859;BMP280;68210;52.032;4.634;2024-01-25T08:53:50;102759.91;;;6.96
78859;BMP280;68210;52.032;4.634;2024-01-25T08:55:51;102759.06;;;7.05
78859;BMP280;68210;52.032;4.634;2024-01-25T08:57:51;102750.63;;;7.12
78859;BMP280;68210;52.032;4.634;2024-01-25T08:59:52;102743.19;;;7.37
78859;BMP280;68210;52.032;4.634;2024-01-25T09:01:52;102735.28;;;7.45
78859;BMP280;68210;52.032;4.634;2024-01-25T09:03:53;102740.75;;;7.35
78859;BMP280;68210;52.032;4.634;2024-01-25T09:05:53;102738.13;;;7.26
78859;BMP280;68210;52.032;4.634;2024-01-25T09:07:54;102734.78;;;7.38
78859;BMP280;68210;52.032;4.634;2024-01-25T09:09:54;102728.81;;;7.41
78859;BMP280;68210;52.032;4.634;2024-01-25T09:11:55;102728.66;;;7.61
78859;BMP280;68210;52.032;4.634;2024-01-25T09:13:55;102721.63;;;8.16
78859;BMP280;68210;52.032;4.634;2024-01-25T09:15:56;102720.69;;;8.48
78859;BMP280;68210;52.032;4.634;2024-01-25T09:17:56;102722.66;;;8.61
78859;BMP280;68210;52.032;4.634;2024-01-25T09:19:56;102721.72;;;8.52
78859;BMP280;68210;52.032;4.634;2024-01-25T09:21:59;102711.63;;;8.40
78859;BMP280;68210;52.032;4.634;2024-01-25T09:24:04;102723.69;;;8.24
78859;BMP280;68210;52.032;4.634;2024-01-25T09:26:04;102724.47;;;8.01
78859;BMP280;68210;52.032;4.634;2024-01-25T09:28:05;102717.22;;;7.97
78859;BMP280;68210;52.032;4.634;2024-01-25T09:30:06;102714.53;;;7.69
78859;BMP280;68210;52.032;4.634;2024-01-25T09:32:07;102716.13;;;7.75
78859;BMP280;68210;52.032;4.634;2024-01-25T09:34:08;102731.88;;;7.63
78859;BMP280;68210;52.032;4.634;2024-01-25T09:36:09;102716.81;;;7.57
78859;BMP280;68210;52.032;4.634;2024-01-25T09:38:09;102728.66;;;7.61
78859;BMP280;68210;52.032;4.634;2024-01-25T09:40:11;102731.72;;;7.50
78859;BMP280;68210;52.032;4.634;2024-01-25T09:42:11;102733.06;;;7.52
78859;BMP280;68210;52.032;4.634;2024-01-25T09:44:13;102717.16;;;7.51
78859;BMP280;68210;52.032;4.634;2024-01-25T09:46:15;102724.38;;;7.55
78859;BMP280;68210;52.032;4.634;2024-01-25T09:48:16;102731.41;;;7.56
78859;BMP280;68210;52.032;4.634;2024-01-25T09:50:17;102723.59;;;7.55
78859;BMP280;68210;52.032;4.634;2024-01-25T09:52:19;102725.09;;;7.65
78859;BMP280;68210;52.032;4.634;2024-01-25T09:54:25;102721.97;;;7.54
78859;BMP280;68210;52.032;4.634;2024-01-25T09:56:26;102713.16;;;7.43
78859;BMP280;68210;52.032;4.634;2024-01-25T09:58:40;102710.75;;;7.70
78859;BMP280;68210;52.032;4.634;2024-01-25T10:00:41;102714.66;;;7.82
78859;BMP280;68210;52.032;4.634;2024-01-25T10:02:43;102721.22;;;7.76
78859;BMP280;68210;52.032;4.634;2024-01-25T10:04:50;102709.03;;;7.79
78859;BMP280;68210;52.032;4.634;2024-01-25T10:06:56;102717.97;;;7.74
78859;BMP280;68210;52.032;4.634;2024-01-25T10:08:58;102720.28;;;7.62
78859;BMP280;68210;52.032;4.634;2024-01-25T10:10:59;102727.03;;;7.60
78859;BMP280;68210;52.032;4.634;2024-01-25T10:12:59;102726.81;;;7.57
78859;BMP280;68210;52.032;4.634;2024-01-25T10:14:59;102723.03;;;7.86
78859;BMP280;68210;52.032;4.634;2024-01-25T10:17:00;102718.56;;;7.99
78859;BMP280;68210;52.032;4.634;2024-01-25T10:19:01;102716.88;;;8.03
78859;BMP280;68210;52.032;4.634;2024-01-25T10:21:03;102730.94;;;8.00
78859;BMP280;68210;52.032;4.634;2024-01-25T10:23:03;102726.16;;;7.92
78859;BMP280;68210;52.032;4.634;2024-01-25T10:25:05;102724.09;;;7.85
78859;BMP280;68210;52.032;4.634;2024-01-25T10:27:11;102721.69;;;7.55
78859;BMP280;68210;52.032;4.634;2024-01-25T10:29:14;102723.28;;;7.61
78859;BMP280;68210;52.032;4.634;2024-01-25T10:31:15;102716.19;;;7.37
78859;BMP280;68210;52.032;4.634;2024-01-25T10:33:16;102714.25;;;7.42
78859;BMP280;68210;52.032;4.634;2024-01-25T10:35:17;102709.63;;;7.48
78859;BMP280;68210;52.032;4.634;2024-01-25T10:37:19;102719.69;;;7.37
78859;BMP280;68210;52.032;4.634;2024-01-25T10:39:21;102722.03;;;7.49
78859;BMP280;68210;52.032;4.634;2024-01-25T10:41:23;102722.25;;;7.52
78859;BMP280;68210;52.032;4.634;2024-01-25T10:43:23;102727.69;;;7.47
78859;BMP280;68210;52.032;4.634;2024-01-25T10:45:23;102721.72;;;7.50
78859;BMP280;68210;52.032;4.634;2024-01-25T10:47:24;102720.03;;;7.59
78859;BMP280;68210;52.032;4.634;2024-01-25T10:50:20;102713.69;;;7.45
78859;BMP280;68210;52.032;4.634;2024-01-25T10:52:20;102716.44;;;7.40
78859;BMP280;68210;52.032;4.634;2024-01-25T10:54:20;102714.56;;;7.36
78859;BMP280;68210;52.032;4.634;2024-01-25T10:56:21;102712.00;;;7.54
78859;BMP280;68210;52.032;4.634;2024-01-25T10:58:22;102689.81;;;7.57
78859;BMP280;68210;52.032;4.634;2024-01-25T11:00:23;102673.44;;;7.49
78859;BMP280;68210;52.032;4.634;2024-01-25T11:02:24;102678.75;;;7.58
78859;BMP280;68210;52.032;4.634;2024-01-25T11:04:24;102676.53;;;7.37
78859;BMP280;68210;52.032;4.634;2024-01-25T11:06:27;102668.09;;;7.44
78859;BMP280;68210;52.032;4.634;2024-01-25T11:08:28;102682.91;;;7.46
78859;BMP280;68210;52.032;4.634;2024-01-25T11:10:28;102678.03;;;7.48
78859;BMP280;68210;52.032;4.634;2024-01-25T11:12:35;102683.28;;;7.63
78859;BMP280;68210;52.032;4.634;2024-01-25T11:14:36;102684.81;;;7.69
78859;BMP280;68210;52.032;4.634;2024-01-25T11:16:37;102683.22;;;7.68
78859;BMP280;68210;52.032;4.634;2024-01-25T11:18:53;102686.50;;;7.65
78859;BMP280;68210;52.032;4.634;2024-01-25T11:20:59;102675.22;;;7.58
78859;BMP280;68210;52.032;4.634;2024-01-25T11:23:04;102676.91;;;7.54
78859;BMP280;68210;52.032;4.634;2024-01-25T11:25:19;102676.28;;;7.62
78859;BMP280;68210;52.032;4.634;2024-01-25T11:27:20;102677.56;;;7.69
78859;BMP280;68210;52.032;4.634;2024-01-25T11:29:21;102663.72;;;7.76
78859;BMP280;68210;52.032;4.634;2024-01-25T11:31:27;102656.41;;;7.76
78859;BMP280;68210;52.032;4.634;2024-01-25T11:33:28;102654.75;;;7.80
78859;BMP280;68210;52.032;4.634;2024-01-25T11:35:28;102653.06;;;7.84
78859;BMP280;68210;52.032;4.634;2024-01-25T11:37:28;102642.69;;;8.19